sensor_id;sensor_type;location;lat;lon;timestamp;pressure;altitude;pressure_sealevel;temperature;humidity
19508;BME280;40157;42.566;27.526;2022-07-18T00:01:55;101483.81;;;25.11;70.44
19508;BME280;40157;42.566;27.526;2022-07-18T00:03:56;101466.16;;;25.04;70.41
19508;BME280;40157;42.566;27.526;2022-07-18T00:05:57;101478.50;;;25.10;69.82
19508;BME280;40157;42.566;27.526;2022-07-18T00:07:57;101482.16;;;25.07;70.20
19508;BME280;40157;42.566;27.526;2022-07-18T00:09:57;101479.47;;;25.07;69.75
19508;BME280;40157;42.566;27.526;2022-07-18T00:11:58;101476.06;;;25.02;69.50
19508;BME280;40157;42.566;27.526;2022-07-18T00:13:58;101468.88;;;25.03;69.30
19508;BME280;40157;42.566;27.526;2022-07-18T00:15:59;101462.78;;;24.98;69.30
19508;BME280;40157;42.566;27.526;2022-07-18T00:17:59;101461.09;;;24.95;69.47
19508;BME280;40157;42.566;27.526;2022-07-18T00:20:00;101465.56;;;24.94;69.73
19508;BME280;40157;42.566;27.526;2022-07-18T00:22:00;101461.19;;;24.92;69.68
19508;BME280;40157;42.566;27.526;2022-07-18T00:24:02;101464.09;;;24.84;69.69
19508;BME280;40157;42.566;27.526;2022-07-18T00:26:03;101455.31;;;24.79;70.11
19508;BME280;40157;42.566;27.526;2022-07-18T00:28:03;101466.94;;;24.80;70.14
19508;BME280;40157;42.566;27.526;2022-07-18T00:30:04;101463.41;;;24.78;70.16
19508;BME280;40157;42.566;27.526;2022-07-18T00:32:07;101478.59;;;24.79;70.29
19508;BME280;40157;42.566;27.526;2022-07-18T00:34:08;101472.47;;;24.75;70.47
19508;BME280;40157;42.566;27.526;2022-07-18T00:36:09;101480.59;;;24.72;70.83
19508;BME280;40157;42.566;27.526;2022-07-18T00:38:09;101474.50;;;24.67;71.31
19508;BME280;40157;42.566;27.526;2022-07-18T00:40:10;101484.09;;;24.74;71.61
19508;BME280;40157;42.566;27.526;2022-07-18T00:42:10;101484.19;;;24.71;71.59
19508;BME280;40157;42.566;27.526;2022-07-18T00:44:23;101493.06;;;24.73;72.11
19508;BME280;40157;42.566;27.526;2022-07-18T00:46:24;101486.06;;;24.69;72.18
19508;BME280;40157;42.566;27.526;2022-07-18T00:48:25;101476.22;;;24.68;72.23
19508;BME280;40157;42.566;27.526;2022-07-18T00:50:26;101484.19;;;24.71;72.24
19508;BME280;40157;42.566;27.526;2022-07-18T00:52:26;101478.81;;;24.71;72.26
19508;BME280;40157;42.566;27.526;2022-07-18T00:54:27;101487.66;;;24.74;72.53
19508;BME280;40157;42.566;27.526;2022-07-18T00:56:27;101496.59;;;24.75;72.42
19508;BME280;40157;42.566;27.526;2022-07-18T00:58:28;101501.78;;;24.80;72.60
19508;BME280;40157;42.566;27.526;2022-07-18T01:00:29;101493.69;;;24.81;72.52
19508;BME280;40157;42.566;27.526;2022-07-18T01:02:48;101490.19;;;24.79;72.71
19508;BME280;40157;42.566;27.526;2022-07-18T01:04:48;101489.38;;;24.77;72.68
19508;BME280;40157;42.566;27.526;2022-07-18T01:06:50;101501.72;;;24.83;72.66
19508;BME280;40157;42.566;27.526;2022-07-18T01:08:51;101499.81;;;24.86;72.83
19508;BME280;40157;42.566;27.526;2022-07-18T01:10:51;101507.03;;;24.84;72.63
19508;BME280;40157;42.566;27.526;2022-07-18T01:12:54;101499.66;;;24.91;72.39
19508;BME280;40157;42.566;27.526;2022-07-18T01:14:54;101501.38;;;24.93;72.40
19508;BME280;40157;42.566;27.526;2022-07-18T01:16:56;101503.25;;;24.91;72.02
19508;BME280;40157;42.566;27.526;2022-07-18T01:18:57;101501.38;;;24.93;72.11
19508;BME280;40157;42.566;27.526;2022-07-18T01:20:58;101507.63;;;24.94;72.02
19508;BME280;40157;42.566;27.526;2022-07-18T01:22:59;101508.50;;;24.94;71.90
19508;BME280;40157;42.566;27.526;2022-07-18T01:24:59;101505.81;;;24.94;71.94
19508;BME280;40157;42.566;27.526;2022-07-18T01:27:00;101519.13;;;24.98;71.78
19508;BME280;40157;42.566;27.526;2022-07-18T01:29:01;101519.03;;;25.01;71.76
19508;BME280;40157;42.566;27.526;2022-07-18T01:31:02;101510.34;;;24.92;71.68
19508;BME280;40157;42.566;27.526;2022-07-18T01:33:02;101516.22;;;25.05;71.54
19508;BME280;40157;42.566;27.526;2022-07-18T01:35:03;101514.34;;;25.07;71.58
19508;BME280;40157;42.566;27.526;2022-07-18T01:37:05;101522.34;;;25.09;71.44
19508;BME280;40157;42.566;27.526;2022-07-18T01:39:05;101510.03;;;25.03;71.48
19508;BME280;40157;42.566;27.526;2022-07-18T01:41:06;101528.47;;;25.14;71.24
19508;BME280;40157;42.566;27.526;2022-07-18T01:43:07;101516.06;;;25.10;70.96
19508;BME280;40157;42.566;27.526;2022-07-18T01:45:07;101527.53;;;25.15;70.81
19508;BME280;40157;42.566;27.526;2022-07-18T01:47:09;101523.13;;;25.12;70.81
19508;BME280;40157;42.566;27.526;2022-07-18T01:49:09;101529.28;;;25.16;70.48
19508;BME280;40157;42.566;27.526;2022-07-18T01:51:10;101540.00;;;25.16;70.02
19508;BME280;40157;42.566;27.526;2022-07-18T01:53:11;101535.66;;;25.14;69.58
19508;BME280;40157;42.566;27.526;2022-07-18T01:55:11;101540.91;;;25.17;68.64
19508;BME280;40157;42.566;27.526;2022-07-18T01:57:12;101541.78;;;25.17;67.90
19508;BME280;40157;42.566;27.526;2022-07-18T01:59:13;101531.31;;;25.08;67.28
19508;BME280;40157;42.566;27.526;2022-07-18T02:01:14;101550.97;;;25.10;67.44
19508;BME280;40157;42.566;27.526;2022-07-18T02:03:14;101541.25;;;25.06;67.06
19508;BME280;40157;42.566;27.526;2022-07-18T02:05:15;101553.56;;;25.13;66.76
19508;BME280;40157;42.566;27.526;2022-07-18T02:07:15;101553.69;;;25.08;66.47
19508;BME280;40157;42.566;27.526;2022-07-18T02:09:15;101554.66;;;25.06;66.38
19508;BME280;40157;42.566;27.526;2022-07-18T02:11:16;101558.34;;;25.03;66.46
19508;BME280;40157;42.566;27.526;2022-07-18T02:13:16;101556.59;;;25.01;66.24
19508;BME280;40157;42.566;27.526;2022-07-18T02:15:20;101567.25;;;25.04;66.77
19508;BME280;40157;42.566;27.526;2022-07-18T02:17:21;101577.03;;;25.06;66.34
19508;BME280;40157;42.566;27.526;2022-07-18T02:19:21;101565.66;;;24.98;66.58
19508;BME280;40157;42.566;27.526;2022-07-18T02:21:22;101582.91;;;24.88;66.14
19508;BME280;40157;42.566;27.526;2022-07-18T02:23:22;101573.28;;;24.82;66.29
19508;BME280;40157;42.566;27.526;2022-07-18T02:25:23;101575.22;;;24.77;66.38
19508;BME280;40157;42.566;27.526;2022-07-18T02:27:23;101569.28;;;24.66;67.19
19508;BME280;40157;42.566;27.526;2022-07-18T02:29:24;101570.91;;;24.71;67.29
19508;BME280;40157;42.566;27.526;2022-07-18T02:31:24;101555.16;;;24.59;67.05
19508;BME280;40157;42.566;27.526;2022-07-18T02:33:25;101566.69;;;24.63;66.98
19508;BME280;40157;42.566;27.526;2022-07-18T02:35:25;101572.69;;;24.71;67.00
19508;BME280;40157;42.566;27.526;2022-07-18T02:37:26;101574.59;;;24.67;66.40
19508;BME280;40157;42.566;27.526;2022-07-18T02:39:27;101568.53;;;24.61;65.82
19508;BME280;40157;42.566;27.526;2022-07-18T02:41:28;101588.31;;;24.56;65.51
19508;BME280;40157;42.566;27.526;2022-07-18T02:43:28;101565.59;;;24.37;64.97
19508;BME280;40157;42.566;27.526;2022-07-18T02:45:29;101545.66;;;24.14;64.94
19508;BME280;40157;42.566;27.526;2022-07-18T02:47:30;101580.19;;;24.27;64.77
19508;BME280;40157;42.566;27.526;2022-07-18T02:49:31;101579.44;;;24.22;64.64
19508;BME280;40157;42.566;27.526;2022-07-18T02:51:32;101572.53;;;24.11;64.69
19508;BME280;40157;42.566;27.526;2022-07-18T02:53:32;101585.22;;;24.05;64.59
19508;BME280;40157;42.566;27.526;2022-07-18T02:55:33;101588.13;;;23.97;64.39
19508;BME280;40157;42.566;27.526;2022-07-18T02:57:33;101586.56;;;23.88;64.90
19508;BME280;40157;42.566;27.526;2022-07-18T02:59:34;101595.41;;;23.92;64.43
19508;BME280;40157;42.566;27.526;2022-07-18T03:01:34;101584.03;;;23.80;63.86
19508;BME280;40157;42.566;27.526;2022-07-18T03:03:35;101572.59;;;23.74;64.81
19508;BME280;40157;42.566;27.526;2022-07-18T03:05:35;101574.47;;;23.70;64.02
19508;BME280;40157;42.566;27.526;2022-07-18T03:07:36;101597.50;;;23.77;64.33
19508;BME280;40157;42.566;27.526;2022-07-18T03:09:36;101594.09;;;23.71;64.38
19508;BME280;40157;42.566;27.526;2022-07-18T03:11:37;101578.38;;;23.57;64.03
19508;BME280;40157;42.566;27.526;2022-07-18T03:13:37;101581.84;;;23.60;63.94
19508;BME280;40157;42.566;27.526;2022-07-18T03:15:39;101599.63;;;23.63;64.02
19508;BME280;40157;42.566;27.526;2022-07-18T03:17:40;101599.66;;;23.61;63.46
19508;BME280;40157;42.566;27.526;2022-07-18T03:19:40;101594.50;;;23.54;63.21
19508;BME280;40157;42.566;27.526;2022-07-18T03:21:41;101588.38;;;23.49;63.35
19508;BME280;40157;42.566;27.526;2022-07-18T03:23:41;101581.22;;;23.49;63.33
19508;BME280;40157;42.566;27.526;2022-07-18T03:25:42;101597.22;;;23.52;63.27
19508;BME280;40157;42.566;27.526;2022-07-18T03:27:42;101583.09;;;23.45;63.82
19508;BME280;40157;42.566;27.526;2022-07-18T03:29:43;101590.09;;;23.51;63.19
19508;BME280;40157;42.566;27.526;2022-07-18T03:31:43;101601.72;;;23.52;63.58
19508;BME280;40157;42.566;27.526;2022-07-18T03:33:44;101603.63;;;23.46;63.09
19508;BME280;40157;42.566;27.526;2022-07-18T03:35:44;101592.81;;;23.50;63.39
19508;BME280;40157;42.566;27.526;2022-07-18T03:37:45;101591.06;;;23.49;63.57
19508;BME280;40157;42.566;27.526;2022-07-18T03:39:45;101598.16;;;23.50;63.04
19508;BME280;40157;42.566;27.526;2022-07-18T03:41:46;101592.91;;;23.46;63.58
19508;BME280;40157;42.566;27.526;2022-07-18T03:43:47;101595.34;;;23.56;63.13
19508;BME280;40157;42.566;27.526;2022-07-18T03:45:47;101577.72;;;23.47;63.23
19508;BME280;40157;42.566;27.526;2022-07-18T03:47:48;101587.44;;;23.50;62.91
19508;BME280;40157;42.566;27.526;2022-07-18T03:49:48;101577.78;;;23.44;62.90
19508;BME280;40157;42.566;27.526;2022-07-18T03:51:49;101598.84;;;23.58;63.02
19508;BME280;40157;42.566;27.526;2022-07-18T03:53:50;101593.69;;;23.52;62.94
19508;BME280;40157;42.566;27.526;2022-07-18T03:55:50;101606.81;;;23.61;62.97
19508;BME280;40157;42.566;27.526;2022-07-18T03:57:51;101575.09;;;23.44;62.98
19508;BME280;40157;42.566;27.526;2022-07-18T03:59:52;101576.84;;;23.46;63.09
19508;BME280;40157;42.566;27.526;2022-07-18T04:01:52;101606.69;;;23.67;62.28
19508;BME280;40157;42.566;27.526;2022-07-18T04:03:53;101598.78;;;23.61;62.23
19508;BME280;40157;42.566;27.526;2022-07-18T04:05:53;101606.75;;;23.64;62.40
19508;BME280;40157;42.566;27.526;2022-07-18T04:07:54;101612.00;;;23.69;62.53
19508;BME280;40157;42.566;27.526;2022-07-18T04:09:54;101614.56;;;23.73;63.02
19508;BME280;40157;42.566;27.526;2022-07-18T04:11:55;101615.47;;;23.72;61.76
19508;BME280;40157;42.566;27.526;2022-07-18T04:13:55;101605.66;;;23.71;62.10
19508;BME280;40157;42.566;27.526;2022-07-18T04:15:56;101616.19;;;23.80;61.81
19508;BME280;40157;42.566;27.526;2022-07-18T04:17:57;101618.75;;;23.87;62.01
19508;BME280;40157;42.566;27.526;2022-07-18T04:19:57;101602.06;;;23.74;61.56
19508;BME280;40157;42.566;27.526;2022-07-18T04:21:58;101598.47;;;23.75;61.51
19508;BME280;40157;42.566;27.526;2022-07-18T04:23:58;101628.47;;;23.89;61.14
19508;BME280;40157;42.566;27.526;2022-07-18T04:25:58;101618.81;;;23.83;61.65
19508;BME280;40157;42.566;27.526;2022-07-18T04:27:59;101622.31;;;23.86;61.14
19508;BME280;40157;42.566;27.526;2022-07-18T04:29:59;101640.91;;;23.93;61.17
19508;BME280;40157;42.566;27.526;2022-07-18T04:32:00;101617.03;;;23.82;60.73
19508;BME280;40157;42.566;27.526;2022-07-18T04:34:01;101639.91;;;23.96;61.03
19508;BME280;40157;42.566;27.526;2022-07-18T04:36:01;101647.06;;;23.97;61.10
19508;BME280;40157;42.566;27.526;2022-07-18T04:38:03;101635.41;;;23.98;61.18
19508;BME280;40157;42.566;27.526;2022-07-18T04:40:05;101641.53;;;24.03;60.88
19508;BME280;40157;42.566;27.526;2022-07-18T04:42:06;101625.63;;;23.97;60.74
19508;BME280;40157;42.566;27.526;2022-07-18T04:44:06;101635.22;;;24.06;61.08
19508;BME280;40157;42.566;27.526;2022-07-18T04:46:07;101641.19;;;24.17;60.60
19508;BME280;40157;42.566;27.526;2022-07-18T04:48:07;101645.53;;;24.21;60.50
19508;BME280;40157;42.566;27.526;2022-07-18T04:50:08;101651.78;;;24.22;60.77
19508;BME280;40157;42.566;27.526;2022-07-18T04:52:08;101646.31;;;24.25;60.78
19508;BME280;40157;42.566;27.526;2022-07-18T04:54:09;101643.53;;;24.29;60.47
19508;BME280;40157;42.566;27.526;2022-07-18T04:56:09;101647.72;;;24.39;60.41
19508;BME280;40157;42.566;27.526;2022-07-18T04:58:10;101649.38;;;24.45;60.39
19508;BME280;40157;42.566;27.526;2022-07-18T05:00:16;101643.94;;;24.48;59.88
19508;BME280;40157;42.566;27.526;2022-07-18T05:02:17;101638.56;;;24.48;59.86
19508;BME280;40157;42.566;27.526;2022-07-18T05:04:18;101651.75;;;24.58;60.30
19508;BME280;40157;42.566;27.526;2022-07-18T05:06:18;101649.81;;;24.63;59.79
19508;BME280;40157;42.566;27.526;2022-07-18T05:08:19;101643.53;;;24.64;59.71
19508;BME280;40157;42.566;27.526;2022-07-18T05:10:20;101648.63;;;24.73;59.37
19508;BME280;40157;42.566;27.526;2022-07-18T05:12:21;101645.03;;;24.74;58.87
19508;BME280;40157;42.566;27.526;2022-07-18T05:14:23;101641.44;;;24.75;59.42
19508;BME280;40157;42.566;27.526;2022-07-18T05:16:24;101651.97;;;24.81;59.30
19508;BME280;40157;42.566;27.526;2022-07-18T05:18:24;101640.38;;;24.81;58.70
19508;BME280;40157;42.566;27.526;2022-07-18T05:20:26;101673.09;;;24.93;58.38
19508;BME280;40157;42.566;27.526;2022-07-18T05:22:26;101662.38;;;24.93;57.78
19508;BME280;40157;42.566;27.526;2022-07-18T05:24:27;101661.44;;;24.94;57.84
19508;BME280;40157;42.566;27.526;2022-07-18T05:26:27;101665.72;;;25.02;57.73
19508;BME280;40157;42.566;27.526;2022-07-18T05:28:28;101656.03;;;24.96;57.20
19508;BME280;40157;42.566;27.526;2022-07-18T05:30:28;101679.78;;;25.10;56.75
19508;BME280;40157;42.566;27.526;2022-07-18T05:32:29;101681.34;;;25.17;56.90
19508;BME280;40157;42.566;27.526;2022-07-18T05:34:29;101676.78;;;25.21;56.45
19508;BME280;40157;42.566;27.526;2022-07-18T05:36:30;101671.34;;;25.22;56.17
19508;BME280;40157;42.566;27.526;2022-07-18T05:38:30;101674.81;;;25.27;55.19
19508;BME280;40157;42.566;27.526;2022-07-18T05:40:31;101678.28;;;25.31;55.36
19508;BME280;40157;42.566;27.526;2022-07-18T05:42:32;101681.75;;;25.35;54.67
19508;BME280;40157;42.566;27.526;2022-07-18T05:44:32;101663.13;;;25.30;54.40
19508;BME280;40157;42.566;27.526;2022-07-18T05:46:33;101671.88;;;25.37;53.85
19508;BME280;40157;42.566;27.526;2022-07-18T05:48:33;101683.56;;;25.34;53.38
19508;BME280;40157;42.566;27.526;2022-07-18T05:50:34;101686.22;;;25.36;54.13
19508;BME280;40157;42.566;27.526;2022-07-18T05:52:36;101688.75;;;25.40;53.76
19508;BME280;40157;42.566;27.526;2022-07-18T05:54:37;101681.47;;;25.44;53.67
19508;BME280;40157;42.566;27.526;2022-07-18T05:56:37;101684.91;;;25.49;53.68
19508;BME280;40157;42.566;27.526;2022-07-18T05:58:38;101674.91;;;25.54;53.35
19508;BME280;40157;42.566;27.526;2022-07-18T06:00:38;101690.72;;;25.63;53.32
19508;BME280;40157;42.566;27.526;2022-07-18T06:02:42;101684.63;;;25.58;52.60
19508;BME280;40157;42.566;27.526;2022-07-18T06:04:42;101690.00;;;25.58;51.83
19508;BME280;40157;42.566;27.526;2022-07-18T06:06:43;101676.84;;;25.49;52.08
19508;BME280;40157;42.566;27.526;2022-07-18T06:08:45;101678.63;;;25.50;52.78
19508;BME280;40157;42.566;27.526;2022-07-18T06:10:45;101691.75;;;25.59;52.74
19508;BME280;40157;42.566;27.526;2022-07-18T06:12:46;101682.72;;;25.62;52.24
19508;BME280;40157;42.566;27.526;2022-07-18T06:14:47;101691.56;;;25.65;53.06
19508;BME280;40157;42.566;27.526;2022-07-18T06:16:47;101687.06;;;25.66;52.86
19508;BME280;40157;42.566;27.526;2022-07-18T06:18:48;101698.44;;;25.74;52.23
19508;BME280;40157;42.566;27.526;2022-07-18T06:20:51;101702.63;;;25.83;52.26
19508;BME280;40157;42.566;27.526;2022-07-18T06:22:52;101690.34;;;25.76;51.88
19508;BME280;40157;42.566;27.526;2022-07-18T06:24:52;101714.97;;;25.90;51.78
19508;BME280;40157;42.566;27.526;2022-07-18T06:26:53;101703.53;;;25.83;51.40
19508;BME280;40157;42.566;27.526;2022-07-18T06:28:57;101707.28;;;25.78;51.69
19508;BME280;40157;42.566;27.526;2022-07-18T06:30:57;101711.00;;;25.74;51.42
19508;BME280;40157;42.566;27.526;2022-07-18T06:33:01;101700.34;;;25.71;51.99
19508;BME280;40157;42.566;27.526;2022-07-18T06:35:06;101685.28;;;25.66;52.48
19508;BME280;40157;42.566;27.526;2022-07-18T06:37:07;101701.00;;;25.79;52.22
19508;BME280;40157;42.566;27.526;2022-07-18T06:39:08;101700.72;;;25.88;51.01
19508;BME280;40157;42.566;27.526;2022-07-18T06:41:11;101673.63;;;25.66;50.31
19508;BME280;40157;42.566;27.526;2022-07-18T06:43:12;101682.47;;;25.70;50.43
19508;BME280;40157;42.566;27.526;2022-07-18T06:45:19;101715.06;;;25.87;50.73
19508;BME280;40157;42.566;27.526;2022-07-18T06:47:20;101702.53;;;25.86;50.44
19508;BME280;40157;42.566;27.526;2022-07-18T06:49:23;101673.53;;;25.69;50.22
19508;BME280;40157;42.566;27.526;2022-07-18T06:51:25;101706.75;;;25.95;50.90
19508;BME280;40157;42.566;27.526;2022-07-18T06:53:26;101710.22;;;26.00;49.88
19508;BME280;40157;42.566;27.526;2022-07-18T06:55:29;101709.25;;;26.01;49.96
19508;BME280;40157;42.566;27.526;2022-07-18T06:57:29;101703.75;;;26.06;49.88
19508;BME280;40157;42.566;27.526;2022-07-18T06:59:30;101711.50;;;26.15;49.83
19508;BME280;40157;42.566;27.526;2022-07-18T07:01:31;101712.34;;;26.17;49.05
19508;BME280;40157;42.566;27.526;2022-07-18T07:03:31;101715.22;;;26.11;48.59
19508;BME280;40157;42.566;27.526;2022-07-18T07:05:32;101714.41;;;26.09;48.55
19508;BME280;40157;42.566;27.526;2022-07-18T07:07:32;101711.19;;;25.97;48.80
19508;BME280;40157;42.566;27.526;2022-07-18T07:09:33;101690.91;;;25.85;49.09
19508;BME280;40157;42.566;27.526;2022-07-18T07:11:33;101710.56;;;25.88;48.93
19508;BME280;40157;42.566;27.526;2022-07-18T07:13:34;101703.63;;;25.80;49.08
19508;BME280;40157;42.566;27.526;2022-07-18T07:15:34;101713.28;;;25.86;49.61
19508;BME280;40157;42.566;27.526;2022-07-18T07:17:36;101721.09;;;25.95;49.50
19508;BME280;40157;42.566;27.526;2022-07-18T07:19:37;101715.53;;;26.01;49.85
19508;BME280;40157;42.566;27.526;2022-07-18T07:21:37;101693.47;;;25.90;48.71
19508;BME280;40157;42.566;27.526;2022-07-18T07:23:37;101723.28;;;26.11;48.77
19508;BME280;40157;42.566;27.526;2022-07-18T07:25:38;101721.31;;;26.16;48.90
19508;BME280;40157;42.566;27.526;2022-07-18T07:27:39;101719.34;;;26.21;48.91
19508;BME280;40157;42.566;27.526;2022-07-18T07:29:40;101720.06;;;26.26;48.42
19508;BME280;40157;42.566;27.526;2022-07-18T07:31:41;101710.25;;;26.25;47.85
19508;BME280;40157;42.566;27.526;2022-07-18T07:33:42;101714.50;;;26.32;48.25
19508;BME280;40157;42.566;27.526;2022-07-18T07:35:44;101715.31;;;26.34;47.62
19508;BME280;40157;42.566;27.526;2022-07-18T07:37:47;101707.88;;;26.43;47.74
19508;BME280;40157;42.566;27.526;2022-07-18T07:39:48;101718.31;;;26.52;47.58
19508;BME280;40157;42.566;27.526;2022-07-18T07:41:50;101717.22;;;26.57;46.67
19508;BME280;40157;42.566;27.526;2022-07-18T07:43:51;101694.25;;;26.47;47.01
19508;BME280;40157;42.566;27.526;2022-07-18T07:45:51;101711.69;;;26.62;46.24
19508;BME280;40157;42.566;27.526;2022-07-18T07:47:53;101696.47;;;26.61;46.51
19508;BME280;40157;42.566;27.526;2022-07-18T07:49:53;101716.59;;;26.76;46.12
19508;BME280;40157;42.566;27.526;2022-07-18T07:51:54;101726.28;;;26.82;46.27
19508;BME280;40157;42.566;27.526;2022-07-18T07:53:55;101704.97;;;26.75;45.70
19508;BME280;40157;42.566;27.526;2022-07-18T07:55:55;101715.41;;;26.85;45.71
19508;BME280;40157;42.566;27.526;2022-07-18T07:57:56;101716.28;;;26.85;45.29
19508;BME280;40157;42.566;27.526;2022-07-18T07:59:56;101709.88;;;26.88;45.11
19508;BME280;40157;42.566;27.526;2022-07-18T08:01:57;101709.88;;;26.88;45.02
19508;BME280;40157;42.566;27.526;2022-07-18T08:03:58;101714.34;;;26.89;44.90
19508;BME280;40157;42.566;27.526;2022-07-18T08:05:58;101707.78;;;26.96;45.63
19508;BME280;40157;42.566;27.526;2022-07-18T08:07:59;101725.66;;;26.99;44.65
19508;BME280;40157;42.566;27.526;2022-07-18T08:10:00;101714.28;;;26.90;44.67
19508;BME280;40157;42.566;27.526;2022-07-18T08:12:00;101715.06;;;26.94;45.86
19508;BME280;40157;42.566;27.526;2022-07-18T08:14:01;101702.75;;;26.87;44.83
19508;BME280;40157;42.566;27.526;2022-07-18T08:16:01;101731.00;;;27.00;44.74
19508;BME280;40157;42.566;27.526;2022-07-18T08:18:02;101730.03;;;27.01;44.59
19508;BME280;40157;42.566;27.526;2022-07-18T08:20:03;101725.50;;;27.03;44.39
19508;BME280;40157;42.566;27.526;2022-07-18T08:22:04;101728.00;;;27.08;44.18
19508;BME280;40157;42.566;27.526;2022-07-18T08:24:06;101727.19;;;27.06;44.37
19508;BME280;40157;42.566;27.526;2022-07-18T08:26:07;101735.09;;;27.10;44.15
19508;BME280;40157;42.566;27.526;2022-07-18T08:28:08;101737.03;;;27.07;43.53
19508;BME280;40157;42.566;27.526;2022-07-18T08:30:08;101712.97;;;27.02;43.70
19508;BME280;40157;42.566;27.526;2022-07-18T08:32:09;101742.09;;;27.14;43.68
19508;BME280;40157;42.566;27.526;2022-07-18T08:34:09;101719.09;;;27.06;43.81
19508;BME280;40157;42.566;27.526;2022-07-18T08:36:13;101704.19;;;26.97;44.62
19508;BME280;40157;42.566;27.526;2022-07-18T08:38:14;101737.47;;;27.20;45.16
19508;BME280;40157;42.566;27.526;2022-07-18T08:40:14;101746.25;;;27.25;45.05
19508;BME280;40157;42.566;27.526;2022-07-18T08:42:15;101751.34;;;27.32;45.20
19508;BME280;40157;42.566;27.526;2022-07-18T08:44:19;101756.56;;;27.37;44.97
19508;BME280;40157;42.566;27.526;2022-07-18T08:46:21;101755.66;;;27.38;44.64
19508;BME280;40157;42.566;27.526;2022-07-18T08:48:22;101769.88;;;27.42;44.08
19508;BME280;40157;42.566;27.526;2022-07-18T08:50:22;101759.97;;;27.42;43.10
19508;BME280;40157;42.566;27.526;2022-07-18T08:52:23;101760.84;;;27.43;42.86
19508;BME280;40157;42.566;27.526;2022-07-18T08:54:24;101757.38;;;27.39;43.23
19508;BME280;40157;42.566;27.526;2022-07-18T08:56:25;101758.22;;;27.41;43.43
19508;BME280;40157;42.566;27.526;2022-07-18T08:58:26;101760.72;;;27.46;43.45
19508;BME280;40157;42.566;27.526;2022-07-18T09:00:29;101756.03;;;27.51;44.03
19508;BME280;40157;42.566;27.526;2022-07-18T09:02:29;101755.88;;;27.56;43.71
19508;BME280;40157;42.566;27.526;2022-07-18T09:06:49;101762.78;;;27.63;43.21
19508;BME280;40157;42.566;27.526;2022-07-18T09:09:01;101762.69;;;27.64;43.52
19508;BME280;40157;42.566;27.526;2022-07-18T09:11:02;101763.47;;;27.68;42.64
19508;BME280;40157;42.566;27.526;2022-07-18T09:13:04;101754.28;;;27.74;42.45
19508;BME280;40157;42.566;27.526;2022-07-18T09:26:43;101759.03;;;28.55;40.57
19508;BME280;40157;42.566;27.526;2022-07-18T09:28:51;101759.16;;;28.52;40.48
19508;BME280;40157;42.566;27.526;2022-07-18T09:30:52;101758.56;;;28.46;40.94
19508;BME280;40157;42.566;27.526;2022-07-18T09:33:09;101768.22;;;28.51;41.00
19508;BME280;40157;42.566;27.526;2022-07-18T09:35:13;101768.47;;;28.45;41.46
19508;BME280;40157;42.566;27.526;2022-07-18T09:37:14;101766.78;;;28.42;41.79
19508;BME280;40157;42.566;27.526;2022-07-18T09:39:19;101769.69;;;28.38;41.16
19508;BME280;40157;42.566;27.526;2022-07-18T09:41:24;101773.13;;;28.41;41.89
19508;BME280;40157;42.566;27.526;2022-07-18T09:43:25;101778.03;;;28.32;39.79
19508;BME280;40157;42.566;27.526;2022-07-18T09:45:41;101776.13;;;28.34;40.67
19508;BME280;40157;42.566;27.526;2022-07-18T09:47:55;101771.53;;;28.36;40.45
19508;BME280;40157;42.566;27.526;2022-07-18T09:49:55;101773.06;;;28.43;40.96
19508;BME280;40157;42.566;27.526;2022-07-18T09:52:07;101767.72;;;28.41;39.99
19508;BME280;40157;42.566;27.526;2022-07-18T09:54:08;101768.72;;;28.39;39.13
19508;BME280;40157;42.566;27.526;2022-07-18T09:56:10;101781.78;;;28.50;39.04
19508;BME280;40157;42.566;27.526;2022-07-18T09:58:12;101764.81;;;28.46;39.89
19508;BME280;40157;42.566;27.526;2022-07-18T10:00:14;101743.75;;;28.34;39.10
19508;BME280;40157;42.566;27.526;2022-07-18T10:02:15;101749.53;;;28.47;38.74
19508;BME280;40157;42.566;27.526;2022-07-18T10:04:16;101772.44;;;28.58;38.53
19508;BME280;40157;42.566;27.526;2022-07-18T10:06:17;101771.41;;;28.61;39.49
19508;BME280;40157;42.566;27.526;2022-07-18T10:08:30;101769.50;;;28.65;38.34
19508;BME280;40157;42.566;27.526;2022-07-18T10:10:31;101757.44;;;28.51;38.34
19508;BME280;40157;42.566;27.526;2022-07-18T10:12:32;101765.47;;;28.53;39.32
19508;BME280;40157;42.566;27.526;2022-07-18T10:14:33;101762.81;;;28.51;40.01
19508;BME280;40157;42.566;27.526;2022-07-18T10:16:34;101758.06;;;28.36;38.92
19508;BME280;40157;42.566;27.526;2022-07-18T10:18:35;101764.06;;;28.42;39.25
19508;BME280;40157;42.566;27.526;2022-07-18T10:20:42;101777.38;;;28.47;39.60
19508;BME280;40157;42.566;27.526;2022-07-18T10:22:45;101761.72;;;28.35;40.85
19508;BME280;40157;42.566;27.526;2022-07-18T10:24:46;101766.09;;;28.37;39.37
19508;BME280;40157;42.566;27.526;2022-07-18T10:27:18;101776.63;;;28.43;38.61
19508;BME280;40157;42.566;27.526;2022-07-18T10:29:19;101761.84;;;28.32;38.90
19508;BME280;40157;42.566;27.526;2022-07-18T10:31:21;101758.06;;;28.36;39.00
19508;BME280;40157;42.566;27.526;2022-07-18T10:33:44;101762.94;;;28.48;39.33
19508;BME280;40157;42.566;27.526;2022-07-18T10:36:05;101770.16;;;28.48;39.02
19508;BME280;40157;42.566;27.526;2022-07-18T10:38:26;101757.19;;;28.57;39.77
19508;BME280;40157;42.566;27.526;2022-07-18T10:40:28;101773.13;;;28.64;39.41
19508;BME280;40157;42.566;27.526;2022-07-18T10:42:29;101761.44;;;28.63;39.68